createdAt,value
2022-09-02T00:00:14.183Z,16.30
2022-09-02T00:01:13.090Z,16.20
2022-09-02T00:02:13.471Z,16.30
2022-09-02T00:03:14.110Z,16.20
2022-09-02T00:04:13.220Z,16.10
2022-09-02T00:05:13.142Z,16.10
2022-09-02T00:06:12.976Z,16.20
2022-09-02T00:07:13.003Z,16.20
2022-09-02T00:08:13.125Z,16.10
2022-09-02T00:09:13.206Z,16.10
2022-09-02T00:10:13.072Z,16.00
2022-09-02T00:11:13.288Z,15.90
2022-09-02T00:12:13.367Z,15.90
2022-09-02T00:13:13.363Z,16.00
2022-09-02T00:14:13.189Z,16.00
2022-09-02T00:15:13.099Z,15.90
2022-09-02T00:16:13.482Z,16.00
2022-09-02T00:17:13.726Z,16.10
2022-09-02T00:18:15.253Z,16.10
2022-09-02T00:19:13.823Z,16.00
2022-09-02T00:20:14.819Z,16.00
2022-09-02T00:21:13.856Z,16.00
2022-09-02T00:22:13.857Z,15.90
2022-09-02T00:23:13.772Z,15.90
2022-09-02T00:24:13.758Z,15.80
2022-09-02T00:25:13.864Z,15.90
2022-09-02T00:26:15.410Z,15.90
2022-09-02T00:27:13.706Z,15.90
2022-09-02T00:28:14.354Z,15.90
2022-09-02T00:29:15.271Z,15.80
2022-09-02T00:30:13.555Z,15.80
2022-09-02T00:31:14.060Z,15.90
2022-09-02T00:32:13.247Z,16.10
2022-09-02T00:33:13.590Z,16.10
2022-09-02T00:34:13.523Z,16.00
2022-09-02T00:35:13.549Z,15.90
2022-09-02T00:36:14.794Z,16.00
2022-09-02T00:37:13.686Z,15.80
2022-09-02T00:38:13.646Z,15.80
2022-09-02T00:39:13.748Z,15.80
2022-09-02T00:40:13.867Z,15.80
2022-09-02T00:41:13.208Z,15.80
2022-09-02T00:42:13.105Z,15.80
2022-09-02T00:43:13.474Z,15.70
2022-09-02T00:44:13.706Z,15.70
2022-09-02T00:45:13.797Z,15.70
2022-09-02T00:46:13.730Z,15.70
2022-09-02T00:47:13.848Z,15.80
2022-09-02T00:48:13.713Z,15.70
2022-09-02T00:49:13.789Z,15.50
2022-09-02T00:50:13.408Z,15.60
2022-09-02T00:51:13.738Z,15.60
2022-09-02T00:52:13.709Z,15.60
2022-09-02T00:53:13.648Z,15.40
2022-09-02T00:54:13.749Z,15.60
2022-09-02T00:55:13.817Z,15.60
2022-09-02T00:56:14.091Z,15.70
2022-09-02T00:57:13.204Z,15.70
2022-09-02T00:58:13.002Z,15.70
2022-09-02T00:59:13.026Z,15.60
2022-09-02T01:00:13.072Z,15.50
2022-09-02T01:01:13.410Z,15.40
2022-09-02T01:02:13.445Z,15.30
2022-09-02T01:03:13.610Z,15.40
2022-09-02T01:04:13.514Z,15.30
2022-09-02T01:05:13.475Z,15.30
2022-09-02T01:06:13.511Z,15.30
2022-09-02T01:07:13.715Z,15.30
2022-09-02T01:08:13.552Z,15.30
2022-09-02T01:09:13.442Z,15.20
2022-09-02T01:10:13.489Z,15.20
2022-09-02T01:11:13.316Z,15.30
2022-09-02T01:12:13.176Z,15.30
2022-09-02T01:13:13.293Z,15.30
2022-09-02T01:14:13.418Z,15.30
2022-09-02T01:15:13.551Z,15.30
2022-09-02T01:16:13.526Z,15.40
2022-09-02T01:17:13.443Z,15.40
2022-09-02T01:18:13.383Z,15.30
2022-09-02T01:19:13.364Z,15.10
2022-09-02T01:20:13.355Z,15.10
2022-09-02T01:21:13.387Z,15.20
2022-09-02T01:22:13.571Z,15.10
2022-09-02T01:23:13.517Z,15.10
2022-09-02T01:24:13.659Z,15.10
2022-09-02T01:25:13.629Z,15.10
2022-09-02T01:26:13.459Z,14.90
2022-09-02T01:27:13.410Z,14.90
2022-09-02T01:28:13.387Z,15.00
2022-09-02T01:29:13.384Z,15.00
2022-09-02T01:30:13.523Z,15.00
2022-09-02T01:31:13.825Z,15.10
2022-09-02T01:32:13.811Z,15.20
2022-09-02T01:33:13.685Z,15.10
2022-09-02T01:34:13.649Z,15.00
2022-09-02T01:35:13.612Z,15.00
2022-09-02T01:36:13.437Z,14.90
2022-09-02T01:37:13.700Z,14.90
2022-09-02T01:38:13.716Z,14.80
2022-09-02T01:39:13.954Z,14.80
2022-09-02T01:40:12.873Z,14.80
2022-09-02T01:41:13.323Z,14.80
2022-09-02T01:42:13.283Z,14.70
2022-09-02T01:43:13.289Z,14.90
2022-09-02T01:44:13.478Z,14.80
2022-09-02T01:45:13.334Z,14.70
2022-09-02T01:46:13.358Z,14.80
2022-09-02T01:47:13.198Z,14.70
2022-09-02T01:48:13.246Z,14.80
2022-09-02T01:49:13.259Z,14.80
2022-09-02T01:50:13.265Z,14.70
2022-09-02T01:51:13.229Z,14.80
2022-09-02T01:52:13.014Z,14.60
2022-09-02T01:53:13.192Z,14.70
2022-09-02T01:54:13.020Z,14.70
2022-09-02T01:55:13.003Z,14.70
2022-09-02T01:56:12.773Z,14.70
2022-09-02T01:57:13.668Z,14.80
2022-09-02T01:58:13.616Z,14.70
2022-09-02T01:59:13.634Z,14.70
2022-09-02T02:00:13.471Z,14.70
2022-09-02T02:01:13.358Z,14.70
2022-09-02T02:02:13.298Z,14.70
2022-09-02T02:03:13.641Z,14.70
2022-09-02T02:04:13.725Z,14.70
2022-09-02T02:05:13.673Z,14.70
2022-09-02T02:06:13.590Z,14.70
2022-09-02T02:07:13.617Z,14.70
2022-09-02T02:08:13.487Z,14.80
2022-09-02T02:09:13.377Z,14.80
2022-09-02T02:10:13.467Z,14.70
2022-09-02T02:11:13.489Z,14.70
2022-09-02T02:12:13.778Z,14.80
2022-09-02T02:13:13.859Z,14.80
2022-09-02T02:14:12.937Z,14.70
2022-09-02T02:15:13.194Z,14.60
2022-09-02T02:16:13.245Z,14.60
2022-09-02T02:17:13.126Z,14.60
2022-09-02T02:18:13.322Z,14.70
2022-09-02T02:19:13.618Z,14.60
2022-09-02T02:20:13.517Z,14.60
2022-09-02T02:21:13.530Z,14.70
2022-09-02T02:22:13.538Z,14.70
2022-09-02T02:23:13.546Z,14.60
2022-09-02T02:24:13.439Z,14.40
2022-09-02T02:25:13.423Z,14.40
2022-09-02T02:26:13.304Z,14.50
2022-09-02T02:27:13.170Z,14.50
2022-09-02T02:28:13.109Z,14.50
2022-09-02T02:29:13.019Z,14.50
2022-09-02T02:30:12.940Z,14.50
2022-09-02T02:31:13.041Z,14.50
2022-09-02T02:32:12.893Z,14.50
2022-09-02T02:33:13.161Z,14.50
2022-09-02T02:34:13.402Z,14.60
2022-09-02T02:35:13.289Z,14.50
2022-09-02T02:36:13.120Z,14.40
2022-09-02T02:37:13.019Z,14.40
2022-09-02T02:38:14.506Z,14.50
2022-09-02T02:39:13.983Z,14.40
2022-09-02T02:40:12.953Z,14.50
2022-09-02T02:41:12.916Z,14.50
2022-09-02T02:42:12.710Z,14.30
2022-09-02T02:43:13.626Z,14.40
2022-09-02T02:44:13.617Z,14.40
2022-09-02T02:45:15.059Z,14.40
2022-09-02T02:46:13.521Z,14.40
2022-09-02T02:47:13.465Z,14.40
2022-09-02T02:48:13.361Z,14.40
2022-09-02T02:49:13.203Z,14.40
2022-09-02T02:50:13.117Z,14.30
2022-09-02T02:51:12.906Z,14.30
2022-09-02T02:52:12.682Z,14.30
2022-09-02T02:53:13.693Z,14.30
2022-09-02T02:54:13.430Z,14.30
2022-09-02T02:55:13.336Z,14.30
2022-09-02T02:56:13.427Z,14.30
2022-09-02T02:57:13.509Z,14.30
2022-09-02T02:58:16.544Z,14.30
2022-09-02T02:59:13.896Z,14.20
2022-09-02T03:00:13.071Z,14.10
2022-09-02T03:01:13.157Z,14.10
2022-09-02T03:02:13.250Z,14.10
2022-09-02T03:03:13.739Z,14.10
2022-09-02T03:04:13.630Z,14.10
2022-09-02T03:05:13.575Z,14.00
2022-09-02T03:06:13.609Z,14.00
2022-09-02T03:07:13.659Z,14.20
2022-09-02T03:08:13.646Z,14.10
2022-09-02T03:09:13.823Z,14.10
2022-09-02T03:10:13.907Z,14.00
2022-09-02T03:11:12.826Z,14.00
2022-09-02T03:12:13.999Z,13.90
2022-09-02T03:13:13.152Z,13.80
2022-09-02T03:14:13.015Z,13.70
2022-09-02T03:15:12.877Z,13.80
2022-09-02T03:16:13.853Z,13.70
2022-09-02T03:17:13.908Z,13.80
2022-09-02T03:18:12.889Z,13.80
2022-09-02T03:19:13.948Z,13.80
2022-09-02T03:20:13.077Z,13.70
2022-09-02T03:21:13.016Z,13.80
2022-09-02T03:22:13.303Z,13.80
2022-09-02T03:23:13.436Z,13.90
2022-09-02T03:24:13.419Z,13.90
2022-09-02T03:25:13.564Z,13.90
2022-09-02T03:26:13.693Z,13.70
2022-09-02T03:27:13.550Z,13.70
2022-09-02T03:28:13.378Z,13.80
2022-09-02T03:29:14.472Z,13.90
2022-09-02T03:30:13.377Z,13.90
2022-09-02T03:31:13.285Z,13.80
2022-09-02T03:32:13.153Z,13.80
2022-09-02T03:33:13.116Z,13.70
2022-09-02T03:34:13.020Z,13.80
2022-09-02T03:35:13.140Z,13.70
2022-09-02T03:36:13.045Z,13.70
2022-09-02T03:37:13.003Z,13.80
2022-09-02T03:38:13.037Z,13.80
2022-09-02T03:39:12.904Z,13.70
2022-09-02T03:40:12.897Z,13.70
2022-09-02T03:41:12.915Z,13.70
2022-09-02T03:42:19.360Z,13.80
2022-09-02T03:43:12.765Z,13.80
2022-09-02T03:44:13.648Z,13.80
2022-09-02T03:45:13.433Z,13.80
2022-09-02T03:46:13.591Z,13.70
2022-09-02T03:47:13.633Z,13.80
2022-09-02T03:48:13.696Z,13.70
2022-09-02T03:49:13.549Z,13.80
2022-09-02T03:50:13.547Z,13.70
2022-09-02T03:51:13.737Z,13.70
2022-09-02T03:52:13.571Z,13.80
2022-09-02T03:53:18.265Z,13.70
2022-09-02T03:54:13.002Z,13.80
2022-09-02T03:55:12.989Z,13.90
2022-09-02T03:56:13.182Z,13.90
2022-09-02T03:57:13.467Z,14.00
2022-09-02T03:58:13.342Z,13.90
2022-09-02T03:59:13.645Z,13.90
2022-09-02T04:00:13.819Z,14.00
2022-09-02T04:01:13.339Z,13.90
2022-09-02T04:02:13.599Z,13.80
2022-09-02T04:03:13.982Z,13.90
2022-09-02T04:04:13.415Z,13.90
2022-09-02T04:05:15.901Z,13.90
2022-09-02T04:06:13.235Z,13.90
2022-09-02T04:07:13.362Z,13.80
2022-09-02T04:08:13.272Z,13.90
2022-09-02T04:09:13.151Z,13.90
2022-09-02T04:10:12.964Z,13.80
2022-09-02T04:11:12.861Z,13.80
2022-09-02T04:12:13.536Z,13.80
2022-09-02T04:13:13.461Z,13.80
2022-09-02T04:14:13.704Z,13.90
2022-09-02T04:15:13.624Z,14.00
2022-09-02T04:16:45.611Z,13.90
2022-09-02T04:17:13.497Z,13.90
2022-09-02T04:18:13.501Z,14.00
2022-09-02T04:19:13.583Z,14.00
2022-09-02T04:20:13.426Z,13.90
2022-09-02T04:21:13.317Z,13.90
2022-09-02T04:22:13.604Z,13.90
2022-09-02T04:23:13.494Z,13.80
2022-09-02T04:24:13.457Z,13.90
2022-09-02T04:25:13.533Z,13.80
2022-09-02T04:26:13.840Z,13.70
2022-09-02T04:27:13.869Z,13.80
2022-09-02T04:28:14.020Z,13.60
2022-09-02T04:29:13.203Z,13.60
2022-09-02T04:30:13.055Z,13.60
2022-09-02T04:31:13.148Z,13.50
2022-09-02T04:32:13.274Z,13.40
2022-09-02T04:34:13.093Z,13.40
2022-09-02T04:35:13.301Z,13.50
2022-09-02T04:36:14.669Z,13.40
2022-09-02T04:37:23.952Z,13.50
2022-09-02T04:38:13.136Z,13.50
2022-09-02T04:39:13.276Z,13.50
2022-09-02T04:40:13.493Z,13.70
2022-09-02T04:41:13.737Z,13.80
2022-09-02T04:42:13.926Z,13.70
2022-09-02T04:43:12.777Z,13.50
2022-09-02T04:44:13.668Z,13.50
2022-09-02T04:45:13.871Z,13.50
2022-09-02T04:46:14.307Z,13.40
2022-09-02T04:47:13.859Z,13.40
2022-09-02T04:48:13.901Z,13.30
2022-09-02T04:49:13.207Z,13.30
2022-09-02T04:50:13.327Z,13.40
2022-09-02T04:51:13.382Z,13.40
2022-09-02T04:52:12.959Z,13.50
2022-09-02T04:53:12.838Z,13.50
2022-09-02T04:54:13.884Z,13.50
2022-09-02T04:55:13.084Z,13.50
2022-09-02T04:56:13.418Z,13.40
2022-09-02T04:57:13.437Z,13.50
2022-09-02T04:58:13.715Z,13.60
2022-09-02T04:59:13.359Z,13.60
2022-09-02T05:00:13.230Z,13.60
2022-09-02T05:01:13.347Z,14.00
2022-09-02T05:02:13.660Z,14.10
2022-09-02T05:03:14.194Z,13.90
2022-09-02T05:04:13.079Z,13.80
2022-09-02T05:05:13.135Z,13.70
2022-09-02T05:06:12.956Z,13.70
2022-09-02T05:07:13.259Z,13.70
2022-09-02T05:08:13.610Z,13.70
2022-09-02T05:09:13.869Z,13.80
2022-09-02T05:10:13.850Z,13.80
2022-09-02T05:11:13.871Z,13.90
2022-09-02T05:12:13.895Z,13.90
2022-09-02T05:13:13.300Z,13.80
2022-09-02T05:14:13.599Z,13.80
2022-09-02T05:15:13.818Z,13.90
2022-09-02T05:16:14.078Z,13.90
2022-09-02T05:17:13.179Z,13.90
2022-09-02T05:18:13.285Z,13.80
2022-09-02T05:19:13.645Z,13.80
2022-09-02T05:20:13.459Z,13.90
2022-09-02T05:21:13.330Z,14.00
2022-09-02T05:22:13.255Z,13.90
2022-09-02T05:23:13.285Z,13.90
2022-09-02T05:24:13.289Z,13.90
2022-09-02T05:25:13.257Z,13.80
2022-09-02T05:26:14.376Z,14.00
2022-09-02T05:27:13.464Z,14.10
2022-09-02T05:28:13.614Z,13.90
2022-09-02T05:29:14.027Z,14.00
2022-09-02T05:30:13.040Z,14.10
2022-09-02T05:31:13.296Z,14.10
2022-09-02T05:32:13.337Z,14.10
2022-09-02T05:33:13.706Z,14.10
2022-09-02T05:34:13.906Z,14.10
2022-09-02T05:35:13.020Z,14.20
2022-09-02T05:36:13.186Z,14.20
2022-09-02T05:37:13.197Z,14.40
2022-09-02T05:38:13.133Z,14.30
2022-09-02T05:39:13.116Z,14.40
2022-09-02T05:40:15.082Z,14.30
2022-09-02T05:41:13.200Z,14.40
2022-09-02T05:42:13.037Z,14.40
2022-09-02T05:43:13.164Z,14.50
2022-09-02T05:44:13.302Z,14.50
2022-09-02T05:45:15.596Z,14.60
2022-09-02T05:46:14.203Z,14.50
2022-09-02T05:47:13.100Z,14.60
2022-09-02T05:48:13.227Z,14.50
2022-09-02T05:49:13.240Z,14.50
2022-09-02T05:50:14.322Z,14.60
2022-09-02T05:51:13.652Z,14.60
2022-09-02T05:52:13.531Z,14.70
2022-09-02T05:53:14.989Z,14.70
2022-09-02T05:54:13.104Z,14.70
2022-09-02T05:55:13.044Z,14.80
2022-09-02T05:56:13.019Z,14.80
2022-09-02T05:57:13.381Z,15.00
2022-09-02T05:58:13.241Z,15.00
2022-09-02T05:59:13.080Z,15.00
2022-09-02T06:00:18.190Z,15.00
2022-09-02T06:01:13.368Z,15.00
2022-09-02T06:02:13.546Z,15.00
2022-09-02T06:03:13.923Z,15.00
2022-09-02T06:04:13.340Z,15.10
2022-09-02T06:05:13.249Z,15.10
2022-09-02T06:06:13.612Z,15.10
2022-09-02T06:07:13.766Z,15.10
2022-09-02T06:08:13.190Z,15.20
2022-09-02T06:09:12.997Z,15.40
2022-09-02T06:10:12.961Z,15.30
2022-09-02T06:11:13.261Z,15.40
2022-09-02T06:12:13.338Z,15.40
2022-09-02T06:13:13.357Z,15.50
2022-09-02T06:14:13.489Z,15.50
2022-09-02T06:15:13.924Z,15.50
2022-09-02T06:16:13.225Z,15.50
2022-09-02T06:17:13.034Z,15.60
2022-09-02T06:18:14.392Z,15.70
2022-09-02T06:19:16.369Z,15.70
2022-09-02T06:20:13.530Z,15.80
2022-09-02T06:21:13.398Z,15.90
2022-09-02T06:22:13.287Z,15.80
2022-09-02T06:23:13.124Z,15.90
2022-09-02T06:24:13.281Z,15.90
2022-09-02T06:25:13.128Z,15.80
2022-09-02T06:26:12.899Z,15.80
2022-09-02T06:27:13.796Z,15.90
2022-09-02T06:28:13.916Z,16.00
2022-09-02T06:29:12.784Z,16.10
2022-09-02T06:30:13.805Z,16.20
2022-09-02T06:31:13.825Z,16.20
2022-09-02T06:32:13.013Z,16.30
2022-09-02T06:33:12.909Z,16.30
2022-09-02T06:34:12.945Z,16.20
2022-09-02T06:35:13.082Z,16.30
2022-09-02T06:36:13.741Z,16.20
2022-09-02T06:37:13.645Z,16.30
2022-09-02T06:38:13.877Z,16.30
2022-09-02T06:39:13.706Z,16.40
2022-09-02T06:40:13.611Z,16.30
2022-09-02T06:41:13.828Z,16.50
2022-09-02T06:42:14.743Z,16.50
2022-09-02T06:43:14.146Z,16.50
2022-09-02T06:44:15.298Z,16.70
2022-09-02T06:45:13.350Z,16.70
2022-09-02T06:46:13.717Z,16.80
2022-09-02T06:47:14.807Z,16.90
2022-09-02T06:48:14.040Z,17.00
2022-09-02T06:49:13.025Z,17.30
2022-09-02T06:50:13.095Z,17.20
2022-09-02T06:51:13.286Z,17.00
2022-09-02T06:52:13.350Z,17.20
2022-09-02T06:53:13.607Z,17.20
2022-09-02T06:54:14.005Z,17.30
2022-09-02T06:55:13.487Z,17.50
2022-09-02T06:56:13.626Z,17.50
2022-09-02T06:57:13.819Z,17.60
2022-09-02T06:58:13.684Z,17.80
2022-09-02T06:59:13.818Z,17.70
2022-09-02T07:00:13.874Z,18.00
2022-09-02T07:01:13.941Z,18.00
2022-09-02T07:02:13.131Z,18.00
2022-09-02T07:03:13.371Z,18.20
2022-09-02T07:04:13.674Z,18.00
2022-09-02T07:05:13.576Z,17.90
2022-09-02T07:06:13.512Z,18.10
2022-09-02T07:07:13.396Z,18.30
2022-09-02T07:08:13.532Z,18.30
2022-09-02T07:09:13.451Z,18.00
2022-09-02T07:10:13.651Z,17.90
2022-09-02T07:11:13.559Z,17.70
2022-09-02T07:12:13.415Z,17.90
2022-09-02T07:13:13.360Z,17.80
2022-09-02T07:14:13.554Z,17.80
2022-09-02T07:15:13.554Z,17.80
2022-09-02T07:16:18.384Z,17.80
2022-09-02T07:17:13.012Z,17.70
2022-09-02T07:18:17.997Z,18.00
2022-09-02T07:19:15.203Z,17.90
2022-09-02T07:20:13.560Z,17.90
2022-09-02T07:21:13.575Z,17.80
2022-09-02T07:22:13.453Z,17.80
2022-09-02T07:23:12.863Z,18.00
2022-09-02T07:24:13.827Z,18.00
2022-09-02T07:25:13.846Z,18.00
2022-09-02T07:26:13.865Z,18.00
2022-09-02T07:27:13.782Z,17.70
2022-09-02T07:28:13.743Z,17.60
2022-09-02T07:29:13.755Z,17.60
2022-09-02T07:30:13.634Z,17.80
2022-09-02T07:31:13.505Z,17.70
2022-09-02T07:32:13.469Z,17.70
2022-09-02T07:33:13.622Z,17.90
2022-09-02T07:34:13.641Z,17.90
2022-09-02T07:35:13.957Z,17.80
2022-09-02T07:36:13.029Z,18.00
2022-09-02T07:37:13.207Z,17.90
2022-09-02T07:38:13.180Z,18.10
2022-09-02T07:39:13.235Z,18.10
2022-09-02T07:40:13.422Z,18.10
2022-09-02T07:41:13.515Z,18.20
2022-09-02T07:42:13.707Z,18.40
2022-09-02T07:43:13.673Z,18.50
2022-09-02T07:44:13.995Z,18.40
2022-09-02T07:45:13.158Z,18.20
2022-09-02T07:46:13.409Z,18.40
2022-09-02T07:47:13.436Z,18.50
2022-09-02T07:48:13.360Z,18.60
2022-09-02T07:49:13.337Z,18.60
2022-09-02T07:50:19.497Z,18.40
2022-09-02T07:51:13.495Z,18.70
2022-09-02T07:52:14.929Z,18.70
2022-09-02T07:53:14.453Z,19.00
2022-09-02T07:54:14.831Z,19.40
2022-09-02T07:55:15.133Z,19.30
2022-09-02T07:56:13.622Z,19.30
2022-09-02T07:57:13.761Z,19.30
2022-09-02T07:58:16.181Z,19.20
2022-09-02T07:59:13.239Z,19.20
2022-09-02T08:00:14.768Z,19.70
2022-09-02T08:01:17.971Z,19.70
2022-09-02T08:02:13.538Z,19.70
2022-09-02T08:03:15.836Z,20.00
2022-09-02T08:04:14.540Z,20.10
2022-09-02T08:05:13.423Z,20.30
2022-09-02T08:06:13.566Z,20.50
2022-09-02T08:07:13.453Z,19.90
2022-09-02T08:08:13.818Z,19.90
2022-09-02T08:09:14.249Z,19.80
2022-09-02T08:10:13.137Z,19.60
2022-09-02T08:11:13.079Z,19.30
2022-09-02T08:12:13.004Z,19.60
2022-09-02T08:13:13.636Z,20.00
2022-09-02T08:14:15.269Z,20.20
2022-09-02T08:15:13.907Z,20.50
2022-09-02T08:16:14.619Z,20.30
2022-09-02T08:17:13.675Z,20.10
2022-09-02T08:18:22.301Z,20.20
2022-09-02T08:19:13.597Z,20.10
2022-09-02T08:20:13.803Z,19.90
2022-09-02T08:21:15.317Z,19.80
2022-09-02T08:22:13.592Z,20.10
2022-09-02T08:23:19.656Z,20.10
2022-09-02T08:24:13.805Z,20.50
2022-09-02T08:25:13.667Z,20.40
2022-09-02T08:26:18.858Z,20.50
2022-09-02T08:27:15.675Z,20.60
2022-09-02T08:28:13.771Z,20.80
2022-09-02T08:29:14.989Z,21.00
2022-09-02T08:30:13.241Z,21.10
2022-09-02T08:31:13.273Z,21.40
2022-09-02T08:32:16.433Z,21.40
2022-09-02T08:33:14.343Z,21.30
2022-09-02T08:34:14.079Z,21.50
2022-09-02T08:35:15.605Z,21.60
2022-09-02T08:36:23.241Z,21.50
2022-09-02T08:37:13.164Z,21.20
2022-09-02T08:38:14.608Z,21.10
2022-09-02T08:39:16.712Z,21.00
2022-09-02T08:40:15.855Z,21.30
2022-09-02T08:41:15.435Z,21.50
2022-09-02T08:42:13.410Z,21.30
2022-09-02T08:43:16.444Z,21.30
2022-09-02T08:44:16.401Z,21.40
2022-09-02T08:45:16.400Z,21.50
2022-09-02T08:46:13.646Z,21.10
2022-09-02T08:47:15.407Z,21.00
2022-09-02T08:48:13.656Z,21.20
2022-09-02T08:49:16.822Z,21.10
2022-09-02T08:50:13.745Z,21.30
2022-09-02T08:51:17.879Z,21.20
2022-09-02T08:52:17.632Z,21.30
2022-09-02T08:53:12.906Z,21.60
2022-09-02T08:54:18.471Z,21.60
2022-09-02T08:55:16.263Z,21.90
2022-09-02T08:56:16.329Z,21.80
2022-09-02T08:57:13.259Z,21.60
2022-09-02T08:58:16.235Z,21.50
2022-09-02T08:59:13.161Z,21.10
2022-09-02T09:00:20.036Z,21.40
2022-09-02T09:01:19.056Z,21.80
2022-09-02T09:02:16.711Z,21.80
2022-09-02T09:03:14.477Z,22.10
2022-09-02T09:04:15.714Z,21.60
2022-09-02T09:05:17.384Z,21.60
2022-09-02T09:06:17.156Z,21.50
2022-09-02T09:07:17.342Z,21.80
2022-09-02T09:08:21.452Z,22.20
2022-09-02T09:09:14.749Z,21.80
2022-09-02T09:10:15.258Z,21.70
2022-09-02T09:11:16.327Z,21.90
2022-09-02T09:12:14.687Z,21.40
2022-09-02T09:13:15.319Z,21.80
2022-09-02T09:14:16.541Z,21.90
2022-09-02T09:15:16.555Z,22.70
2022-09-02T09:16:14.188Z,23.00
2022-09-02T09:17:16.106Z,22.70
2022-09-02T09:18:16.918Z,22.40
2022-09-02T09:19:18.295Z,22.60
2022-09-02T09:20:19.302Z,22.90
2022-09-02T09:21:16.324Z,22.40
2022-09-02T09:22:16.473Z,21.90
2022-09-02T09:23:20.042Z,21.50
2022-09-02T09:24:16.802Z,21.70
2022-09-02T09:25:12.754Z,21.70
2022-09-02T09:26:16.662Z,22.40
2022-09-02T09:27:16.610Z,22.70
2022-09-02T09:28:15.394Z,23.20
2022-09-02T09:29:14.889Z,23.00
2022-09-02T09:30:17.216Z,23.30
2022-09-02T09:31:17.541Z,23.40
2022-09-02T09:32:15.194Z,23.80
2022-09-02T09:33:17.109Z,24.00
2022-09-02T09:34:18.669Z,24.10
2022-09-02T09:35:15.168Z,23.90
2022-09-02T09:36:18.338Z,24.30
2022-09-02T09:37:18.921Z,24.50
2022-09-02T09:38:12.888Z,24.40
2022-09-02T09:39:17.230Z,24.30
2022-09-02T09:40:14.992Z,25.10
2022-09-02T09:41:13.076Z,25.10
2022-09-02T09:42:16.392Z,25.50
2022-09-02T09:43:14.529Z,24.90
2022-09-02T09:44:13.853Z,23.90
2022-09-02T09:45:16.019Z,24.80
2022-09-02T09:46:15.090Z,24.20
2022-09-02T09:47:18.690Z,24.60
2022-09-02T09:48:15.946Z,23.60
2022-09-02T09:49:15.549Z,23.80
2022-09-02T09:50:18.505Z,23.90
2022-09-02T09:51:13.742Z,23.40
2022-09-02T09:52:19.059Z,23.50
2022-09-02T09:53:15.817Z,23.80
2022-09-02T09:54:14.396Z,24.30
2022-09-02T09:55:15.748Z,24.20
2022-09-02T09:56:14.984Z,24.60
2022-09-02T09:57:16.203Z,24.50
2022-09-02T09:58:17.139Z,24.60
2022-09-02T09:59:16.181Z,23.90
2022-09-02T10:00:13.621Z,23.80
2022-09-02T10:01:17.859Z,24.30
2022-09-02T10:02:17.034Z,24.30
2022-09-02T10:03:17.249Z,24.30
2022-09-02T10:04:41.731Z,24.90
2022-09-02T10:05:14.739Z,24.20
2022-09-02T10:06:13.762Z,24.40
2022-09-02T10:07:18.919Z,24.80
2022-09-02T10:08:15.737Z,24.50
2022-09-02T10:09:15.337Z,24.10
2022-09-02T10:10:17.362Z,24.10
2022-09-02T10:11:16.932Z,24.70
2022-09-02T10:12:17.792Z,25.00
2022-09-02T10:13:16.304Z,24.90
2022-09-02T10:14:16.772Z,25.30
2022-09-02T10:15:18.020Z,25.00
2022-09-02T10:16:15.943Z,24.80
2022-09-02T10:17:17.507Z,25.40
2022-09-02T10:18:18.738Z,25.40
2022-09-02T10:19:15.476Z,25.30
2022-09-02T10:20:16.599Z,25.10
2022-09-02T10:21:18.265Z,25.20
2022-09-02T10:22:17.900Z,25.90
2022-09-02T10:23:16.713Z,26.30
2022-09-02T10:24:18.257Z,26.90
2022-09-02T10:25:19.400Z,25.80
2022-09-02T10:26:19.866Z,25.60
2022-09-02T10:27:18.920Z,25.80
2022-09-02T10:28:20.433Z,26.40
2022-09-02T10:29:17.827Z,25.80
2022-09-02T10:30:17.832Z,26.30
2022-09-02T10:31:17.854Z,26.30
2022-09-02T10:32:15.930Z,25.80
2022-09-02T10:33:17.612Z,25.70
2022-09-02T10:34:18.187Z,26.30
2022-09-02T10:35:20.390Z,27.50
2022-09-02T10:36:23.326Z,27.40
2022-09-02T10:37:21.510Z,26.30
2022-09-02T10:38:18.237Z,26.50
2022-09-02T10:39:16.810Z,27.10
2022-09-02T10:40:18.326Z,26.60
2022-09-02T10:41:18.366Z,26.70
2022-09-02T10:42:16.873Z,27.10
2022-09-02T10:43:18.344Z,27.40
2022-09-02T10:44:16.685Z,29.00
2022-09-02T10:45:19.626Z,28.90
2022-09-02T10:46:19.471Z,27.30
2022-09-02T10:47:20.145Z,27.60
2022-09-02T10:48:19.681Z,28.60
2022-09-02T10:49:19.610Z,28.20
2022-09-02T10:50:20.818Z,28.30
2022-09-02T10:51:17.927Z,27.90
2022-09-02T10:52:18.791Z,27.60
2022-09-02T10:53:20.041Z,27.10
2022-09-02T10:54:18.460Z,26.10
2022-09-02T10:55:20.576Z,26.80
2022-09-02T10:56:17.831Z,27.00
2022-09-02T10:57:17.527Z,27.10
2022-09-02T10:58:20.445Z,26.70
2022-09-02T10:59:19.320Z,25.80
2022-09-02T11:00:19.367Z,26.60
2022-09-02T11:01:18.100Z,26.50
2022-09-02T11:02:17.935Z,26.00
2022-09-02T11:03:18.368Z,26.10
2022-09-02T11:04:22.632Z,27.00
2022-09-02T11:05:18.201Z,26.80
2022-09-02T11:06:19.920Z,26.80
2022-09-02T11:07:18.336Z,26.50
2022-09-02T11:08:18.733Z,26.60
2022-09-02T11:09:21.018Z,26.40
2022-09-02T11:10:15.909Z,26.40
2022-09-02T11:11:18.354Z,26.60
2022-09-02T11:12:18.686Z,26.40
2022-09-02T11:13:19.068Z,26.70
2022-09-02T11:14:20.916Z,26.70
2022-09-02T11:15:18.484Z,26.80
2022-09-02T11:16:17.705Z,26.70
2022-09-02T11:17:16.965Z,27.40
2022-09-02T11:18:18.701Z,27.20
2022-09-02T11:19:19.135Z,27.60
2022-09-02T11:20:18.522Z,27.70
2022-09-02T11:21:19.174Z,27.70
2022-09-02T11:22:17.823Z,26.80
2022-09-02T11:23:17.246Z,26.60
2022-09-02T11:24:18.752Z,27.00
2022-09-02T11:25:19.419Z,27.20
2022-09-02T11:26:18.458Z,26.80
2022-09-02T11:27:32.462Z,28.20
2022-09-02T11:28:23.966Z,29.50
2022-09-02T11:29:17.946Z,30.70
2022-09-02T11:30:18.151Z,30.70
2022-09-02T11:31:18.724Z,30.70
2022-09-02T11:32:18.663Z,28.30
2022-09-02T11:33:19.115Z,29.30
2022-09-02T11:34:18.552Z,31.20
2022-09-02T11:35:21.050Z,32.00
2022-09-02T11:36:19.075Z,32.30
2022-09-02T11:37:19.882Z,32.70
2022-09-02T11:38:20.780Z,33.20
2022-09-02T11:39:25.823Z,33.50
2022-09-02T11:40:33.146Z,32.20
2022-09-02T11:41:36.724Z,30.90
2022-09-02T11:42:20.721Z,31.10
2022-09-02T11:43:21.862Z,31.20
2022-09-02T11:44:21.265Z,30.90
2022-09-02T11:45:20.993Z,30.70
2022-09-02T11:46:21.220Z,31.00
2022-09-02T11:47:20.550Z,30.60
2022-09-02T11:48:19.211Z,30.50
2022-09-02T11:49:20.802Z,31.50
2022-09-02T11:50:20.716Z,31.80
2022-09-02T11:53:20.968Z,28.40
2022-09-02T11:54:20.596Z,29.10
2022-09-02T11:55:20.812Z,29.10
2022-09-02T11:56:20.268Z,29.80
2022-09-02T11:57:20.722Z,30.30
2022-09-02T11:58:19.544Z,31.20
2022-09-02T11:59:19.448Z,30.40
2022-09-02T12:00:20.677Z,31.40
2022-09-02T12:01:25.515Z,31.50
2022-09-02T12:02:20.166Z,29.00
2022-09-02T12:03:38.899Z,28.50
2022-09-02T12:05:21.358Z,30.00
2022-09-02T12:06:20.936Z,30.40
2022-09-02T12:07:20.418Z,31.10
2022-09-02T12:08:21.218Z,30.70
2022-09-02T12:09:20.664Z,29.80
2022-09-02T12:10:22.799Z,30.40
2022-09-02T12:11:20.740Z,30.00
2022-09-02T12:12:21.093Z,30.80
2022-09-02T12:13:20.998Z,31.70
2022-09-02T12:14:20.303Z,31.50
2022-09-02T12:15:20.608Z,31.90
2022-09-02T12:16:21.611Z,31.30
2022-09-02T12:17:20.800Z,31.30
2022-09-02T12:18:21.391Z,29.70
2022-09-02T12:19:20.456Z,29.70
2022-09-02T12:20:20.032Z,30.20
2022-09-02T12:21:23.341Z,30.10
2022-09-02T12:22:26.606Z,30.60
2022-09-02T12:23:19.887Z,31.60
2022-09-02T12:24:21.154Z,31.50
2022-09-02T12:25:20.858Z,31.90
2022-09-02T12:26:19.697Z,30.40
2022-09-02T12:27:21.172Z,29.30
2022-09-02T12:28:24.282Z,30.20
2022-09-02T12:29:20.549Z,31.40
2022-09-02T12:30:20.723Z,31.30
2022-09-02T12:31:22.536Z,30.80
2022-09-02T12:32:19.737Z,30.90
2022-09-02T12:33:16.884Z,30.70
2022-09-02T12:34:13.652Z,30.20
2022-09-02T12:35:13.696Z,31.40
2022-09-02T12:36:13.741Z,32.30
2022-09-02T12:37:13.397Z,30.90
2022-09-02T12:38:13.293Z,31.30
2022-09-02T12:39:13.474Z,31.10
2022-09-02T12:40:13.557Z,32.10
2022-09-02T12:41:13.592Z,31.20
2022-09-02T12:42:13.522Z,30.80
2022-09-02T12:43:13.461Z,31.40
2022-09-02T12:44:14.277Z,30.90
2022-09-02T12:45:13.439Z,30.60
2022-09-02T12:46:13.559Z,30.50
2022-09-02T12:47:13.711Z,30.00
2022-09-02T12:48:13.557Z,29.70
2022-09-02T12:49:13.449Z,29.70
2022-09-02T12:50:13.681Z,29.50
2022-09-02T12:51:12.975Z,29.70
2022-09-02T12:52:12.891Z,29.90
2022-09-02T12:53:14.001Z,29.10
2022-09-02T12:54:13.299Z,29.50
2022-09-02T12:55:13.320Z,30.30
2022-09-02T12:56:13.237Z,30.70